Time;durP1;ratioP1;P1;durP2;ratioP2;P2;SDS_P1;SDS_P2;PMS_P1;PMS_P2;Temp;Humidity;BMP_temperature;BMP_pressure;BME280_temperature;BME280_humidity;BME280_pressure;Samples;Min_cycle;Max_cycle;Signal;HPM_P1;HPM_P2
2022/03/22 00:22:41;;;;;;;2.83;1.80;;;;;;;;;;4343990;29;20648;-58
2022/03/22 00:25:07;;;;;;;3.17;1.75;;;;;;;;;;4136127;34;20103;-59
2022/03/22 00:27:52;;;;;;;3.42;1.98;;;;;;;;;;4136539;34;20116;-59
2022/03/22 00:30:30;;;;;;;2.97;1.77;;;;;;;;;;4123273;34;20120;-59
2022/03/22 00:32:57;;;;;;;3.72;1.90;;;;;;;;;;4131757;34;20088;-60
2022/03/22 00:35:25;;;;;;;2.15;1.73;;;;;;;;;;4136477;34;20571;-61
2022/03/22 00:37:53;;;;;;;2.15;1.85;;;;;;;;;;4135153;34;20127;-60
2022/03/22 00:40:21;;;;;;;3.30;1.90;;;;;;;;;;4136417;34;20115;-61
2022/03/22 00:42:48;;;;;;;2.40;1.65;;;;;;;;;;4136603;34;20123;-61
2022/03/22 00:45:16;;;;;;;2.37;1.50;;;;;;;;;;4136439;34;20119;-59
2022/03/22 00:47:43;;;;;;;2.33;1.80;;;;;;;;;;4136515;34;20103;-59
2022/03/22 00:50:09;;;;;;;3.30;2.10;;;;;;;;;;4136415;34;20575;-59
2022/03/22 00:52:36;;;;;;;4.00;1.87;;;;;;;;;;4136584;34;20111;-59
2022/03/22 00:55:05;;;;;;;2.30;1.62;;;;;;;;;;4136575;34;20094;-59
2022/03/22 00:57:33;;;;;;;3.70;1.80;;;;;;;;;;4133676;34;20135;-59
2022/03/22 01:00:04;;;;;;;4.37;2.00;;;;;;;;;;4136224;34;20107;-59
2022/03/22 01:02:35;;;;;;;2.42;2.00;;;;;;;;;;4134882;34;20545;-59
2022/03/22 01:05:06;;;;;;;3.62;2.37;;;;;;;;;;4136255;34;20223;-59
2022/03/22 01:07:33;;;;;;;3.95;2.05;;;;;;;;;;4136422;34;20115;-59
2022/03/22 01:10:01;;;;;;;3.17;1.75;;;;;;;;;;4136435;34;20115;-59
2022/03/22 01:12:27;;;;;;;3.25;2.00;;;;;;;;;;4136338;34;20684;-58
2022/03/22 01:14:53;;;;;;;5.30;2.05;;;;;;;;;;4136162;34;20155;-58
2022/03/22 01:17:19;;;;;;;2.28;1.73;;;;;;;;;;4136210;34;20116;-58
2022/03/22 01:19:46;;;;;;;2.47;2.05;;;;;;;;;;4134704;34;20527;-58
2022/03/22 01:22:12;;;;;;;4.47;2.25;;;;;;;;;;4136044;34;20212;-58
2022/03/22 01:24:38;;;;;;;2.10;1.90;;;;;;;;;;4135982;34;20192;-60
2022/03/22 01:27:04;;;;;;;2.28;1.90;;;;;;;;;;4136025;34;20539;-58
2022/03/22 01:29:30;;;;;;;4.15;1.85;;;;;;;;;;4136287;34;20198;-58
2022/03/22 01:31:56;;;;;;;4.05;2.10;;;;;;;;;;4136079;34;20122;-58
2022/03/22 01:34:23;;;;;;;6.80;1.90;;;;;;;;;;4134575;34;20138;-59
2022/03/22 01:36:49;;;;;;;5.57;2.08;;;;;;;;;;4123449;34;20529;-58
2022/03/22 01:39:15;;;;;;;3.53;2.05;;;;;;;;;;4135883;34;20163;-58
2022/03/22 01:41:41;;;;;;;4.03;2.40;;;;;;;;;;4135857;34;20150;-59
2022/03/22 01:44:07;;;;;;;4.10;2.25;;;;;;;;;;4135866;34;20134;-58
2022/03/22 01:46:35;;;;;;;4.68;2.22;;;;;;;;;;4135850;34;20223;-59
2022/03/22 01:49:01;;;;;;;3.05;2.35;;;;;;;;;;4135865;34;20448;-60
2022/03/22 01:51:31;;;;;;;2.75;1.92;;;;;;;;;;4135778;34;20547;-59
2022/03/22 01:53:58;;;;;;;4.68;2.28;;;;;;;;;;4135695;34;20114;-58
2022/03/22 01:56:24;;;;;;;3.95;2.28;;;;;;;;;;4135885;34;20122;-61
2022/03/22 01:58:50;;;;;;;2.72;1.95;;;;;;;;;;4135863;34;20123;-58
2022/03/22 02:06:48;;;;;;;;;;;;;;;;;;4125404;34;20103;-59
2022/03/22 02:09:14;;;;;;;;;;;;;;;;;;4134605;34;20054;-59
2022/03/22 02:11:40;;;;;;;3.55;2.20;;;;;;;;;;4135542;34;20336;-58
2022/03/22 02:14:06;;;;;;;3.35;2.00;;;;;;;;;;4135580;34;20139;-59
2022/03/22 02:16:32;;;;;;;3.03;2.15;;;;;;;;;;4135551;34;20123;-59
2022/03/22 02:18:59;;;;;;;3.62;2.10;;;;;;;;;;4135691;34;20092;-59
2022/03/22 02:21:28;;;;;;;3.08;1.80;;;;;;;;;;4135624;34;20145;-59
2022/03/22 02:23:57;;;;;;;5.57;2.40;;;;;;;;;;4134026;34;20114;-59
2022/03/22 02:26:25;;;;;;;2.72;2.50;;;;;;;;;;4136289;34;20139;-59
2022/03/22 02:28:53;;;;;;;4.55;2.87;;;;;;;;;;4137507;34;20134;-59
2022/03/22 02:31:23;;;;;;;4.85;3.20;;;;;;;;;;4137500;34;20111;-59
2022/03/22 02:33:49;;;;;;;4.05;2.53;;;;;;;;;;4136062;34;20200;-59
2022/03/22 02:36:15;;;;;;;3.42;2.40;;;;;;;;;;4137504;34;20119;-60
2022/03/22 02:38:41;;;;;;;4.47;2.25;;;;;;;;;;4141939;34;20120;-59
2022/03/22 02:41:09;;;;;;;4.28;2.22;;;;;;;;;;4144664;34;20130;-59
2022/03/22 02:43:35;;;;;;;3.28;2.12;;;;;;;;;;4125117;34;20159;-58
2022/03/22 02:46:01;;;;;;;3.45;2.20;;;;;;;;;;4136099;34;20207;-59
2022/03/22 02:48:27;;;;;;;4.37;2.42;;;;;;;;;;4137452;34;20235;-59
2022/03/22 02:50:53;;;;;;;3.28;2.22;;;;;;;;;;4137323;34;20211;-59
2022/03/22 02:53:19;;;;;;;3.55;2.30;;;;;;;;;;4137434;34;20134;-59
2022/03/22 02:55:45;;;;;;;7.03;2.53;;;;;;;;;;4137308;34;20195;-59
2022/03/22 02:58:11;;;;;;;3.78;2.37;;;;;;;;;;4137511;34;20524;-58
2022/03/22 03:00:37;;;;;;;4.43;2.62;;;;;;;;;;4137377;34;20488;-59
2022/03/22 03:03:04;;;;;;;3.97;2.40;;;;;;;;;;4137411;34;20207;-59
2022/03/22 03:05:32;;;;;;;4.80;2.58;;;;;;;;;;4137148;34;20114;-58
2022/03/22 03:07:59;;;;;;;5.15;2.25;;;;;;;;;;4137533;34;20757;-59
2022/03/22 03:10:26;;;;;;;4.28;2.50;;;;;;;;;;4137199;34;20202;-58
2022/03/22 03:12:59;;;;;;;4.12;2.45;;;;;;;;;;4137567;34;20110;-59
2022/03/22 03:15:25;;;;;;;2.67;2.00;;;;;;;;;;4124737;34;20677;-59
2022/03/22 03:17:51;;;;;;;3.97;2.37;;;;;;;;;;4137493;34;20119;-59
2022/03/22 03:20:17;;;;;;;3.92;2.30;;;;;;;;;;4136934;34;20556;-58
2022/03/22 03:22:43;;;;;;;4.75;2.22;;;;;;;;;;4137296;34;20111;-59
2022/03/22 03:25:09;;;;;;;3.50;2.50;;;;;;;;;;4137287;34;20436;-58
2022/03/22 03:27:36;;;;;;;3.78;2.08;;;;;;;;;;4137172;34;20134;-58
2022/03/22 03:30:04;;;;;;;3.97;2.50;;;;;;;;;;4140774;34;20120;-58
2022/03/22 03:32:31;;;;;;;3.35;2.30;;;;;;;;;;4144321;34;20509;-58
2022/03/22 03:34:57;;;;;;;4.97;3.10;;;;;;;;;;4137196;34;20121;-61
2022/03/22 03:37:24;;;;;;;3.70;2.85;;;;;;;;;;4142719;34;20700;-59
2022/03/22 03:39:51;;;;;;;3.85;2.80;;;;;;;;;;4138531;34;20524;-58
2022/03/22 03:42:17;;;;;;;4.07;2.42;;;;;;;;;;4136272;34;20208;-59
2022/03/22 03:47:28;;;;;;;4.95;2.37;;;;;;;;;;4136380;34;20120;-59
2022/03/22 03:49:56;;;;;;;4.60;2.50;;;;;;;;;;4136654;34;20120;-59
2022/03/22 03:52:25;;;;;;;6.68;2.65;;;;;;;;;;4124411;34;20135;-60
2022/03/22 03:54:52;;;;;;;3.58;2.50;;;;;;;;;;4122255;34;20114;-60
2022/03/22 03:57:19;;;;;;;3.22;2.30;;;;;;;;;;4123463;34;20112;-60
2022/03/22 03:59:45;;;;;;;7.05;2.72;;;;;;;;;;4125948;34;20136;-60
2022/03/22 04:02:11;;;;;;;4.03;2.45;;;;;;;;;;4128152;34;20111;-60
2022/03/22 04:04:38;;;;;;;5.05;2.35;;;;;;;;;;4123272;34;20119;-60
2022/03/22 04:07:05;;;;;;;5.80;2.85;;;;;;;;;;4123704;34;20183;-60
2022/03/22 04:09:35;;;;;;;7.57;2.87;;;;;;;;;;4123508;34;20226;-60
2022/03/22 04:12:02;;;;;;;10.93;3.50;;;;;;;;;;4122023;34;20695;-62
2022/03/22 04:14:28;;;;;;;5.43;3.40;;;;;;;;;;4125081;34;20098;-59
2022/03/22 04:16:56;;;;;;;8.55;3.72;;;;;;;;;;4136571;34;20154;-60
2022/03/22 04:19:22;;;;;;;12.98;4.03;;;;;;;;;;4124397;34;20103;-60
2022/03/22 04:21:49;;;;;;;6.20;3.10;;;;;;;;;;4136607;34;20443;-60
2022/03/22 04:24:15;;;;;;;11.32;3.90;;;;;;;;;;4136527;34;20104;-60
2022/03/22 04:26:43;;;;;;;5.22;3.12;;;;;;;;;;4124125;34;20109;-60
2022/03/22 04:34:40;;;;;;;6.17;3.10;;;;;;;;;;4136587;34;20498;-59
2022/03/22 04:37:08;;;;;;;5.70;3.10;;;;;;;;;;4136580;34;20109;-59
2022/03/22 04:39:34;;;;;;;7.20;3.37;;;;;;;;;;4136454;34;20095;-59
2022/03/22 04:42:00;;;;;;;7.72;3.08;;;;;;;;;;4135134;34;20524;-59
2022/03/22 04:44:28;;;;;;;6.60;3.10;;;;;;;;;;4136470;34;20139;-58
2022/03/22 04:46:55;;;;;;;5.87;3.10;;;;;;;;;;4136506;34;20237;-60
2022/03/22 04:49:21;;;;;;;8.07;3.78;;;;;;;;;;4136322;34;20102;-61
2022/03/22 04:57:16;;;;;;;7.95;4.28;;;;;;;;;;4136139;34;20495;-59
2022/03/22 04:59:43;;;;;;;6.40;3.22;;;;;;;;;;4136463;34;20550;-59
2022/03/22 05:02:12;;;;;;;7.22;3.10;;;;;;;;;;4131453;34;20537;-58
2022/03/22 05:04:38;;;;;;;9.13;3.08;;;;;;;;;;4128886;34;20162;-58
2022/03/22 05:07:05;;;;;;;5.25;3.22;;;;;;;;;;4127586;34;20532;-59
2022/03/22 05:09:31;;;;;;;5.97;3.00;;;;;;;;;;4122773;34;20123;-59
2022/03/22 05:11:57;;;;;;;7.97;3.20;;;;;;;;;;4125800;34;20150;-57
2022/03/22 05:14:24;;;;;;;8.57;3.45;;;;;;;;;;4118588;34;20123;-58
2022/03/22 05:16:50;;;;;;;6.10;3.58;;;;;;;;;;4128325;34;20112;-59
2022/03/22 05:19:16;;;;;;;5.35;3.05;;;;;;;;;;4132609;34;20108;-58
2022/03/22 05:21:42;;;;;;;6.03;3.05;;;;;;;;;;4120029;34;20226;-59
2022/03/22 05:24:08;;;;;;;6.20;3.42;;;;;;;;;;4129342;34;20143;-59
2022/03/22 05:26:35;;;;;;;5.03;2.78;;;;;;;;;;4128937;34;20130;-59
2022/03/22 05:29:04;;;;;;;7.32;3.55;;;;;;;;;;4116395;34;20508;-59
2022/03/22 05:31:31;;;;;;;7.30;3.47;;;;;;;;;;4132712;34;20135;-58
2022/03/22 05:33:58;;;;;;;5.60;3.30;;;;;;;;;;4125773;34;20131;-59
2022/03/22 05:36:25;;;;;;;7.68;4.65;;;;;;;;;;4128185;34;20139;-60
2022/03/22 05:38:52;;;;;;;9.23;4.07;;;;;;;;;;4127693;34;20561;-59
2022/03/22 05:41:18;;;;;;;6.07;3.62;;;;;;;;;;4130599;34;20607;-58
2022/03/22 05:43:44;;;;;;;5.82;3.40;;;;;;;;;;4129845;34;20103;-59
2022/03/22 05:46:11;;;;;;;4.20;3.00;;;;;;;;;;4128036;34;20431;-60
2022/03/22 05:48:39;;;;;;;6.93;3.42;;;;;;;;;;4127190;34;20139;-60
2022/03/22 05:51:06;;;;;;;7.12;3.50;;;;;;;;;;4120827;34;20461;-59
2022/03/22 05:53:32;;;;;;;5.72;3.15;;;;;;;;;;4135662;34;20123;-60
2022/03/22 05:55:58;;;;;;;5.53;2.85;;;;;;;;;;4123302;34;20206;-59
2022/03/22 05:58:24;;;;;;;5.28;3.17;;;;;;;;;;4125547;34;20112;-59
2022/03/22 06:00:50;;;;;;;5.90;3.15;;;;;;;;;;4127505;34;20116;-58
2022/03/22 06:03:16;;;;;;;5.85;3.55;;;;;;;;;;4133572;34;20108;-59
2022/03/22 06:05:42;;;;;;;6.20;3.20;;;;;;;;;;4144552;34;20167;-58
2022/03/22 06:08:09;;;;;;;6.32;3.08;;;;;;;;;;4137805;34;20208;-58
2022/03/22 06:10:35;;;;;;;5.53;3.00;;;;;;;;;;4135816;34;20220;-58
2022/03/22 06:13:01;;;;;;;5.18;2.85;;;;;;;;;;4134639;34;20126;-58
2022/03/22 06:15:29;;;;;;;5.72;2.87;;;;;;;;;;4133907;34;20480;-58
2022/03/22 06:18:02;;;;;;;7.43;3.28;;;;;;;;;;4138433;34;20189;-59
2022/03/22 06:20:34;;;;;;;7.43;4.05;;;;;;;;;;4124397;34;20524;-58
2022/03/22 06:23:01;;;;;;;7.85;5.15;;;;;;;;;;4142318;34;20183;-59
2022/03/22 06:25:27;;;;;;;6.75;3.50;;;;;;;;;;4140053;34;20105;-59
2022/03/22 06:27:54;;;;;;;6.60;4.03;;;;;;;;;;4128454;34;20119;-59
2022/03/22 06:30:21;;;;;;;7.05;3.33;;;;;;;;;;4140609;34;20124;-58
2022/03/22 06:32:50;;;;;;;8.23;3.33;;;;;;;;;;4135770;34;20119;-58
2022/03/22 06:35:19;;;;;;;6.28;2.62;;;;;;;;;;4133533;34;20493;-58
2022/03/22 06:37:46;;;;;;;7.32;4.15;;;;;;;;;;4131057;34;20110;-59
2022/03/22 06:40:13;;;;;;;4.68;2.85;;;;;;;;;;4122763;34;20091;-57
2022/03/22 06:42:40;;;;;;;5.25;2.78;;;;;;;;;;4124070;34;20135;-59
2022/03/22 06:45:06;;;;;;;7.68;2.80;;;;;;;;;;4137535;34;20122;-59
2022/03/22 06:47:33;;;;;;;8.38;3.00;;;;;;;;;;4137493;34;20100;-58
2022/03/22 06:49:59;;;;;;;6.93;2.90;;;;;;;;;;4137396;34;20127;-58
2022/03/22 06:52:26;;;;;;;9.25;3.25;;;;;;;;;;4135836;34;20154;-59
2022/03/22 06:54:52;;;;;;;4.68;2.75;;;;;;;;;;4123808;34;20580;-62
2022/03/22 06:57:19;;;;;;;8.65;3.00;;;;;;;;;;4123680;34;20163;-59
2022/03/22 06:59:45;;;;;;;5.35;2.85;;;;;;;;;;4123842;34;20115;-59
2022/03/22 07:02:11;;;;;;;8.32;3.20;;;;;;;;;;4137989;34;20123;-60
2022/03/22 07:04:37;;;;;;;6.43;3.47;;;;;;;;;;4135145;34;20135;-59
2022/03/22 07:07:03;;;;;;;4.93;2.92;;;;;;;;;;4129269;34;20574;-59
2022/03/22 07:09:29;;;;;;;6.75;3.00;;;;;;;;;;4127916;34;20512;-59
2022/03/22 07:11:56;;;;;;;4.60;3.17;;;;;;;;;;4123271;34;20125;-59
2022/03/22 07:14:24;;;;;;;8.07;3.08;;;;;;;;;;4122281;34;20199;-58
2022/03/22 07:16:51;;;;;;;5.10;2.60;;;;;;;;;;4125279;34;20437;-59
2022/03/22 07:19:19;;;;;;;7.18;3.00;;;;;;;;;;4122069;34;20123;-57
2022/03/22 07:21:46;;;;;;;5.45;3.28;;;;;;;;;;4128716;34;20099;-58
2022/03/22 07:24:13;;;;;;;5.47;2.72;;;;;;;;;;4125347;34;20205;-62
2022/03/22 07:26:43;;;;;;;5.95;3.20;;;;;;;;;;4131685;34;20115;-59
2022/03/22 07:29:09;;;;;;;6.60;3.28;;;;;;;;;;4137087;34;20163;-58
2022/03/22 07:31:38;;;;;;;6.47;3.17;;;;;;;;;;4136956;34;20137;-60
2022/03/22 07:34:10;;;;;;;6.70;3.70;;;;;;;;;;4132685;34;20119;-59
2022/03/22 07:36:37;;;;;;;6.22;3.62;;;;;;;;;;4116794;34;20218;-61
2022/03/22 07:39:04;;;;;;;6.68;3.62;;;;;;;;;;4122430;34;20171;-61
2022/03/22 07:41:30;;;;;;;7.53;3.70;;;;;;;;;;4125358;34;20136;-62
2022/03/22 07:43:56;;;;;;;4.93;3.37;;;;;;;;;;4137009;34;20159;-60
2022/03/22 07:46:23;;;;;;;7.85;3.53;;;;;;;;;;4134479;34;20635;-60
2022/03/22 07:48:50;;;;;;;6.32;3.53;;;;;;;;;;4146401;34;20219;-60
2022/03/22 07:54:02;;;;;;;8.30;3.40;;;;;;;;;;4139992;34;20487;-60
2022/03/22 07:56:30;;;;;;;9.60;3.37;;;;;;;;;;4149168;34;20115;-59
2022/03/22 07:58:57;;;;;;;5.82;3.37;;;;;;;;;;4149306;34;20126;-59
2022/03/22 08:01:24;;;;;;;6.62;2.92;;;;;;;;;;4148414;34;20135;-60
2022/03/22 08:03:51;;;;;;;4.97;2.42;;;;;;;;;;4148857;34;20119;-61
2022/03/22 08:06:17;;;;;;;5.03;2.92;;;;;;;;;;4135276;34;21211;-59
2022/03/22 08:08:44;;;;;;;6.10;2.90;;;;;;;;;;4144909;34;20111;-60
2022/03/22 08:11:11;;;;;;;7.50;3.28;;;;;;;;;;4136621;34;20516;-60
2022/03/22 08:13:38;;;;;;;5.78;3.20;;;;;;;;;;4115808;34;20208;-61
2022/03/22 08:16:05;;;;;;;6.10;3.20;;;;;;;;;;4126435;34;20551;-60
2022/03/22 08:18:31;;;;;;;5.78;2.90;;;;;;;;;;4123725;34;20108;-61
2022/03/22 08:20:57;;;;;;;5.32;2.72;;;;;;;;;;4135241;34;20196;-60
2022/03/22 08:23:23;;;;;;;5.70;2.80;;;;;;;;;;4128142;34;20433;-59
2022/03/22 08:25:51;;;;;;;4.82;2.55;;;;;;;;;;4133040;34;20118;-60
2022/03/22 08:28:17;;;;;;;5.10;2.10;;;;;;;;;;4137842;34;20204;-60
2022/03/22 08:30:44;;;;;;;6.50;2.70;;;;;;;;;;4144227;34;20508;-59
2022/03/22 08:33:11;;;;;;;4.87;3.10;;;;;;;;;;4149046;34;20111;-60
2022/03/22 08:35:41;;;;;;;4.80;2.45;;;;;;;;;;4149431;34;20122;-59
2022/03/22 08:38:08;;;;;;;7.10;2.75;;;;;;;;;;4148298;34;20119;-60
2022/03/22 08:40:34;;;;;;;5.50;2.95;;;;;;;;;;4149400;34;20519;-61
2022/03/22 08:43:04;;;;;;;7.18;3.30;;;;;;;;;;4149735;34;20114;-60
2022/03/22 08:45:32;;;;;;;8.25;3.45;;;;;;;;;;4136953;34;20554;-61
2022/03/22 08:47:59;;;;;;;6.68;3.28;;;;;;;;;;4147678;34;20118;-61
2022/03/22 08:50:25;;;;;;;6.28;3.03;;;;;;;;;;4147835;34;20110;-60
2022/03/22 08:52:51;;;;;;;7.53;3.22;;;;;;;;;;4134084;34;20123;-61
2022/03/22 08:55:19;;;;;;;6.20;2.67;;;;;;;;;;4147685;34;20107;-61
2022/03/22 08:57:48;;;;;;;7.87;2.85;;;;;;;;;;4135005;34;20135;-61
2022/03/22 09:00:16;;;;;;;7.78;2.78;;;;;;;;;;4135371;34;20115;-61
2022/03/22 09:02:43;;;;;;;8.07;2.67;;;;;;;;;;4149661;34;20121;-60
2022/03/22 09:07:58;;;;;;;7.17;3.30;;;;;;;;;;4149749;34;20555;-60
2022/03/22 09:10:25;;;;;;;5.50;2.95;;;;;;;;;;4132151;34;20124;-60
2022/03/22 09:12:51;;;;;;;6.32;2.92;;;;;;;;;;4122815;34;20544;-60
2022/03/22 09:15:18;;;;;;;7.70;3.05;;;;;;;;;;4122607;34;20441;-59
2022/03/22 09:17:45;;;;;;;5.10;2.60;;;;;;;;;;4121164;34;20179;-60
2022/03/22 09:20:14;;;;;;;6.70;2.67;;;;;;;;;;4122616;34;20217;-63
2022/03/22 09:22:42;;;;;;;8.80;2.85;;;;;;;;;;4122626;34;20103;-62
2022/03/22 09:25:09;;;;;;;7.03;2.72;;;;;;;;;;4122462;34;20114;-61
2022/03/22 09:27:36;;;;;;;6.18;2.70;;;;;;;;;;4136147;34;20111;-61
2022/03/22 09:30:03;;;;;;;6.12;2.65;;;;;;;;;;4129761;34;20425;-61
2022/03/22 09:32:29;;;;;;;8.02;3.00;;;;;;;;;;4122506;34;20102;-61
2022/03/22 09:34:55;;;;;;;4.72;2.95;;;;;;;;;;4122478;34;20088;-61
2022/03/22 09:37:21;;;;;;;6.10;3.17;;;;;;;;;;4122876;34;20120;-61
2022/03/22 09:39:47;;;;;;;4.90;2.87;;;;;;;;;;4124658;34;20211;-61
2022/03/22 09:42:13;;;;;;;5.75;2.65;;;;;;;;;;4124591;34;20448;-60
2022/03/22 09:44:39;;;;;;;6.95;2.62;;;;;;;;;;4124593;34;20214;-61
2022/03/22 09:47:05;;;;;;;5.97;2.72;;;;;;;;;;4124542;34;20114;-62
2022/03/22 09:49:31;;;;;;;5.57;2.65;;;;;;;;;;4124585;34;20107;-61
2022/03/22 09:51:58;;;;;;;5.62;2.70;;;;;;;;;;4124147;34;20131;-60
2022/03/22 09:54:24;;;;;;;7.45;2.80;;;;;;;;;;4124517;34;20107;-61
2022/03/22 09:56:51;;;;;;;4.03;2.42;;;;;;;;;;4124399;34;20131;-61
2022/03/22 09:59:20;;;;;;;4.57;3.15;;;;;;;;;;4124437;34;20104;-63
2022/03/22 10:01:46;;;;;;;7.12;2.60;;;;;;;;;;4124432;34;20156;-62
2022/03/22 10:04:14;;;;;;;6.90;2.60;;;;;;;;;;4124519;34;20456;-62
2022/03/22 10:06:54;;;;;;;7.68;2.90;;;;;;;;;;4124578;34;20531;-63
2022/03/22 10:09:30;;;;;;;7.25;2.97;;;;;;;;;;4124504;34;20104;-61
2022/03/22 10:11:57;;;;;;;6.22;3.58;;;;;;;;;;4124537;34;20480;-61
2022/03/22 10:14:33;;;;;;;7.95;3.08;;;;;;;;;;4124379;34;20224;-64
2022/03/22 10:17:08;;;;;;;6.12;3.10;;;;;;;;;;4124277;34;20209;-60
2022/03/22 10:19:41;;;;;;;6.90;2.73;;;;;;;;;;4124455;34;20096;-60
2022/03/22 10:22:10;;;;;;;9.80;3.60;;;;;;;;;;4100794;34;20452;-60
2022/03/22 10:24:47;;;;;;;6.20;2.83;;;;;;;;;;4124110;34;20187;-59
2022/03/22 10:27:28;;;;;;;6.45;2.55;;;;;;;;;;4131448;34;20130;-59
2022/03/22 10:29:55;;;;;;;6.18;2.70;;;;;;;;;;4128029;34;20112;-59
2022/03/22 10:32:34;;;;;;;4.18;2.15;;;;;;;;;;4133321;34;20142;-59
2022/03/22 10:35:17;;;;;;;5.80;2.20;;;;;;;;;;4133312;34;20135;-59
2022/03/22 10:37:54;;;;;;;4.60;2.58;;;;;;;;;;4133500;34;20122;-59
2022/03/22 10:40:28;;;;;;;5.32;2.47;;;;;;;;;;4120742;34;20274;-59
2022/03/22 10:43:00;;;;;;;5.30;2.60;;;;;;;;;;4133366;34;20208;-58
2022/03/22 10:45:27;;;;;;;5.22;2.42;;;;;;;;;;4133331;34;20553;-58
2022/03/22 10:47:54;;;;;;;4.12;2.15;;;;;;;;;;4132898;34;20126;-60
2022/03/22 10:50:20;;;;;;;15.93;2.62;;;;;;;;;;4120758;34;20135;-59
2022/03/22 10:52:57;;;;;;;5.70;2.62;;;;;;;;;;4135831;34;20119;-58
2022/03/22 10:55:27;;;;;;;5.78;2.22;;;;;;;;;;4137229;34;20203;-60
2022/03/22 10:57:58;;;;;;;5.28;2.35;;;;;;;;;;4134834;34;20216;-59
2022/03/22 11:00:25;;;;;;;4.20;2.33;;;;;;;;;;4138245;34;20123;-60
2022/03/22 11:02:53;;;;;;;3.58;2.15;;;;;;;;;;4136042;34;20122;-60
2022/03/22 11:05:21;;;;;;;6.20;2.40;;;;;;;;;;4120161;34;20179;-58
2022/03/22 11:07:49;;;;;;;7.28;2.58;;;;;;;;;;4137469;34;20095;-60
2022/03/22 11:10:17;;;;;;;4.57;2.30;;;;;;;;;;4137326;34;20101;-60
2022/03/22 11:12:43;;;;;;;3.12;2.00;;;;;;;;;;4137325;34;20130;-60
2022/03/22 11:15:11;;;;;;;4.32;1.90;;;;;;;;;;4127131;34;20486;-60
2022/03/22 11:17:37;;;;;;;4.25;2.30;;;;;;;;;;4140124;34;20197;-60
2022/03/22 11:20:06;;;;;;;2.70;2.12;;;;;;;;;;4140387;34;20131;-61
2022/03/22 11:22:33;;;;;;;4.25;2.08;;;;;;;;;;4124821;34;20143;-58
2022/03/22 11:25:14;;;;;;;4.68;2.15;;;;;;;;;;4110654;34;20206;-59
2022/03/22 11:27:39;;;;;;;4.57;2.15;;;;;;;;;;4121513;34;20119;-59
2022/03/22 11:30:07;;;;;;;5.25;2.30;;;;;;;;;;4122726;34;20225;-59
2022/03/22 11:35:24;;;;;;;4.00;2.10;;;;;;;;;;4123715;34;20125;-59
2022/03/22 11:37:55;;;;;;;5.07;2.15;;;;;;;;;;4123871;34;20202;-60
2022/03/22 11:43:13;;;;;;;3.67;2.42;;;;;;;;;;4123543;34;20135;-61
2022/03/22 11:45:47;;;;;;;5.70;2.58;;;;;;;;;;4118118;34;20142;-61
2022/03/22 11:48:13;;;;;;;3.70;2.00;;;;;;;;;;4108464;34;20118;-64
2022/03/22 11:50:42;;;;;;;3.58;2.03;;;;;;;;;;4136427;34;20199;-66
2022/03/22 11:53:16;;;;;;;3.12;1.80;;;;;;;;;;4135759;34;20076;-66
2022/03/22 11:55:42;;;;;;;6.78;2.05;;;;;;;;;;4130550;34;20102;-63
2022/03/22 11:58:08;;;;;;;3.78;2.20;;;;;;;;;;4123078;34;20115;-66
2022/03/22 12:00:55;;;;;;;5.28;2.75;;;;;;;;;;4126430;34;20178;-62
2022/03/22 12:03:25;;;;;;;7.10;2.40;;;;;;;;;;4146362;34;20122;-63
2022/03/22 12:05:54;;;;;;;5.37;2.30;;;;;;;;;;4131365;34;20206;-67
2022/03/22 12:08:20;;;;;;;2.75;1.70;;;;;;;;;;4123578;34;20122;-65
2022/03/22 12:10:48;;;;;;;4.53;2.12;;;;;;;;;;4110937;34;20123;-62
2022/03/22 12:13:14;;;;;;;4.37;2.15;;;;;;;;;;4139624;34;20103;-61
2022/03/22 12:15:41;;;;;;;4.12;1.95;;;;;;;;;;4137774;34;20119;-62
2022/03/22 12:18:09;;;;;;;3.20;1.87;;;;;;;;;;4150154;34;20445;-61
2022/03/22 12:20:35;;;;;;;6.10;2.37;;;;;;;;;;4145170;34;20549;-62
2022/03/22 12:23:03;;;;;;;3.92;1.83;;;;;;;;;;4111163;34;20114;-66
2022/03/22 12:25:31;;;;;;;6.15;1.80;;;;;;;;;;4118100;34;20187;-63
2022/03/22 12:28:07;;;;;;;3.08;1.70;;;;;;;;;;4146214;34;20095;-61
2022/03/22 12:30:36;;;;;;;2.05;1.65;;;;;;;;;;4122860;34;20128;-61
2022/03/22 12:33:07;;;;;;;3.47;1.60;;;;;;;;;;4121580;34;20116;-61
2022/03/22 12:35:34;;;;;;;3.10;1.70;;;;;;;;;;4122100;34;20485;-61
2022/03/22 12:38:01;;;;;;;3.40;1.65;;;;;;;;;;4122669;34;20567;-62
2022/03/22 12:40:27;;;;;;;2.35;1.80;;;;;;;;;;4123155;34;20195;-62
2022/03/22 12:42:54;;;;;;;4.55;1.90;;;;;;;;;;4122943;34;20441;-63
2022/03/22 12:45:20;;;;;;;3.58;2.03;;;;;;;;;;4123138;34;20104;-63
2022/03/22 12:47:48;;;;;;;2.65;1.75;;;;;;;;;;4123151;34;20108;-61
2022/03/22 12:50:16;;;;;;;3.15;1.50;;;;;;;;;;4123034;34;20120;-61
2022/03/22 12:52:42;;;;;;;2.60;1.45;;;;;;;;;;4123242;34;20103;-63
2022/03/22 12:55:10;;;;;;;3.08;1.80;;;;;;;;;;4099460;34;20096;-58
2022/03/22 12:57:38;;;;;;;2.72;1.98;;;;;;;;;;4123135;34;20231;-63
2022/03/22 13:00:05;;;;;;;2.17;1.40;;;;;;;;;;4122921;34;20197;-63
2022/03/22 13:02:31;;;;;;;3.90;1.67;;;;;;;;;;4110781;34;20099;-62
2022/03/22 13:04:58;;;;;;;4.90;1.70;;;;;;;;;;4122913;34;20106;-63
2022/03/22 13:07:25;;;;;;;4.87;1.75;;;;;;;;;;4122981;34;20130;-61
2022/03/22 13:12:38;;;;;;;5.25;1.90;;;;;;;;;;4122792;34;20220;-60
2022/03/22 13:15:10;;;;;;;2.78;1.75;;;;;;;;;;4122805;34;20115;-60
2022/03/22 13:17:42;;;;;;;3.70;2.10;;;;;;;;;;4123005;34;20266;-62
2022/03/22 13:20:15;;;;;;;3.12;2.15;;;;;;;;;;4122670;34;20433;-62
2022/03/22 13:23:12;;;;;;;7.03;2.42;;;;;;;;;;4122611;34;20202;-61
2022/03/22 13:25:40;;;;;;;3.62;1.55;;;;;;;;;;4124962;34;20111;-62
2022/03/22 13:28:12;;;;;;;2.85;1.83;;;;;;;;;;4134530;34;20453;-61
2022/03/22 13:30:44;;;;;;;4.25;1.80;;;;;;;;;;4123513;34;20103;-61
2022/03/22 13:33:13;;;;;;;2.80;1.80;;;;;;;;;;4134658;34;20210;-61
2022/03/22 13:35:51;;;;;;;2.75;1.87;;;;;;;;;;4135894;34;20214;-59
2022/03/22 13:38:17;;;;;;;3.20;1.87;;;;;;;;;;4135991;34;20536;-60
2022/03/22 13:40:45;;;;;;;2.37;1.67;;;;;;;;;;4135856;34;20187;-59
2022/03/22 13:43:11;;;;;;;4.30;2.10;;;;;;;;;;4135939;34;20213;-60
2022/03/22 13:45:42;;;;;;;4.10;1.90;;;;;;;;;;4135756;34;20091;-60
2022/03/22 13:48:12;;;;;;;3.37;2.05;;;;;;;;;;4135761;34;20104;-60
2022/03/22 13:50:39;;;;;;;6.45;2.90;;;;;;;;;;4135855;34;20134;-61
2022/03/22 13:53:10;;;;;;;5.68;2.42;;;;;;;;;;4134266;34;20208;-61
2022/03/22 13:55:45;;;;;;;5.15;2.35;;;;;;;;;;4135886;34;20196;-61
2022/03/22 13:58:22;;;;;;;5.15;2.00;;;;;;;;;;4135735;34;20103;-61
2022/03/22 14:00:50;;;;;;;3.08;2.30;;;;;;;;;;4135890;34;20140;-60
2022/03/22 14:03:17;;;;;;;3.37;2.03;;;;;;;;;;4135661;34;20118;-60
2022/03/22 14:05:44;;;;;;;5.37;2.03;;;;;;;;;;4135869;34;20110;-60
2022/03/22 14:08:12;;;;;;;4.90;2.45;;;;;;;;;;4135717;34;20468;-60
2022/03/22 14:10:39;;;;;;;4.53;2.12;;;;;;;;;;4135561;34;20118;-59
2022/03/22 14:13:05;;;;;;;6.30;2.90;;;;;;;;;;4134386;34;20123;-59
2022/03/22 14:15:32;;;;;;;3.95;2.25;;;;;;;;;;4135425;34;20110;-62
2022/03/22 14:17:58;;;;;;;4.20;2.40;;;;;;;;;;4135868;34;20208;-59
2022/03/22 14:20:24;;;;;;;3.50;2.30;;;;;;;;;;4135539;34;20516;-62
2022/03/22 14:22:55;;;;;;;6.12;3.83;;;;;;;;;;4136873;34;20130;-58
2022/03/22 14:25:22;;;;;;;5.50;2.15;;;;;;;;;;4137481;34;20465;-61
2022/03/22 14:27:50;;;;;;;6.80;2.95;;;;;;;;;;4137726;34;20110;-59
2022/03/22 14:30:19;;;;;;;4.03;2.55;;;;;;;;;;4137538;34;20196;-62
2022/03/22 14:32:47;;;;;;;4.78;2.50;;;;;;;;;;4125298;34;20127;-61
2022/03/22 14:37:58;;;;;;;;;;;;;;;;;;4137851;34;20115;-60
2022/03/22 14:40:24;;;;;;;;;;;;;;;;;;4137875;34;20328;-60
2022/03/22 14:42:51;;;;;;;3.40;1.95;;;;;;;;;;4137538;34;20351;-61
2022/03/22 14:45:20;;;;;;;5.28;2.33;;;;;;;;;;4137399;34;20656;-60
2022/03/22 14:47:49;;;;;;;3.95;2.20;;;;;;;;;;4137559;34;20139;-60
2022/03/22 14:50:17;;;;;;;3.53;2.08;;;;;;;;;;4137489;34;20123;-59
2022/03/22 14:55:29;;;;;;;3.60;2.53;;;;;;;;;;4137322;34;20103;-62
2022/03/22 15:00:40;;;;;;;5.10;2.53;;;;;;;;;;4137536;34;20196;-63
2022/03/22 15:03:10;;;;;;;6.35;2.50;;;;;;;;;;4120945;34;20532;-63
2022/03/22 15:05:44;;;;;;;6.37;3.20;;;;;;;;;;4135559;34;20115;-64
2022/03/22 15:08:11;;;;;;;3.50;2.92;;;;;;;;;;4119180;34;20120;-63
2022/03/22 15:10:38;;;;;;;4.32;2.62;;;;;;;;;;4123809;34;20102;-64
2022/03/22 15:13:07;;;;;;;8.18;2.45;;;;;;;;;;4123529;34;20100;-61
2022/03/22 15:15:34;;;;;;;7.55;2.70;;;;;;;;;;4123565;34;20190;-61
2022/03/22 15:18:01;;;;;;;4.37;2.40;;;;;;;;;;4123659;34;20103;-64
2022/03/22 15:20:28;;;;;;;3.15;2.10;;;;;;;;;;4123615;34;20186;-63
2022/03/22 15:22:54;;;;;;;7.40;2.33;;;;;;;;;;4110867;34;20535;-61
2022/03/22 15:25:20;;;;;;;7.37;2.20;;;;;;;;;;4124328;34;20272;-62
2022/03/22 15:27:46;;;;;;;3.60;2.08;;;;;;;;;;4129524;34;20143;-62
2022/03/22 15:30:12;;;;;;;4.45;2.62;;;;;;;;;;4123733;34;20542;-62
2022/03/22 15:32:38;;;;;;;4.72;2.20;;;;;;;;;;4128904;34;20103;-62
2022/03/22 15:35:05;;;;;;;4.72;2.20;;;;;;;;;;4136889;34;20114;-62
2022/03/22 15:37:31;;;;;;;3.90;1.95;;;;;;;;;;4135465;34;20134;-62
2022/03/22 15:39:57;;;;;;;3.50;2.12;;;;;;;;;;4136454;34;20127;-66
2022/03/22 15:42:23;;;;;;;4.32;2.60;;;;;;;;;;4134914;34;20102;-66
2022/03/22 15:44:50;;;;;;;4.97;2.62;;;;;;;;;;4121991;34;20208;-65
2022/03/22 15:47:16;;;;;;;3.08;2.05;;;;;;;;;;4119287;34;20112;-65
2022/03/22 15:49:42;;;;;;;3.30;2.20;;;;;;;;;;4123589;34;20108;-64